createdAt,value
2023-02-02T00:02:23.320Z,54.67
2023-02-02T00:07:29.150Z,54.26
2023-02-02T00:12:35.796Z,54.52
2023-02-02T00:17:37.394Z,54.43
2023-02-02T00:22:41.560Z,54.30
2023-02-02T00:27:48.348Z,54.65
2023-02-02T00:33:07.144Z,54.16
2023-02-02T00:38:16.120Z,54.89
2023-02-02T00:43:26.107Z,54.44
2023-02-02T00:48:27.673Z,54.60
2023-02-02T00:53:35.764Z,54.86
2023-02-02T00:58:45.098Z,54.80
2023-02-02T01:03:52.951Z,54.85
2023-02-02T01:08:56.599Z,55.29
2023-02-02T01:13:58.400Z,55.32
2023-02-02T01:19:03.502Z,54.99
2023-02-02T01:24:05.446Z,55.50
2023-02-02T01:29:09.209Z,55.77
2023-02-02T01:34:15.643Z,55.99
2023-02-02T01:39:17.241Z,56.47
2023-02-02T01:44:55.668Z,56.52
2023-02-02T01:50:05.386Z,56.84
2023-02-02T01:55:13.281Z,56.65
2023-02-02T02:00:20.201Z,56.50
2023-02-02T02:05:31.252Z,56.88
2023-02-02T02:10:37.536Z,56.63
2023-02-02T02:16:17.978Z,57.20
2023-02-02T02:22:12.161Z,56.90
2023-02-02T02:27:33.789Z,56.22
2023-02-02T02:33:03.586Z,57.30
2023-02-02T02:38:32.530Z,56.22
2023-02-02T02:43:56.267Z,55.84
2023-02-02T02:49:01.892Z,55.73
2023-02-02T02:54:06.915Z,56.04
2023-02-02T02:59:38.551Z,55.65
2023-02-02T03:04:50.403Z,55.93
2023-02-02T03:10:03.482Z,55.81
2023-02-02T03:15:10.239Z,56.03
2023-02-02T03:20:16.098Z,55.87
2023-02-02T03:25:23.821Z,55.42
2023-02-02T03:30:29.060Z,55.57
2023-02-02T03:35:33.210Z,55.57
2023-02-02T03:40:46.859Z,55.89
2023-02-02T03:45:48.527Z,56.16
2023-02-02T03:50:50.291Z,56.24
2023-02-02T03:55:54.962Z,55.78
2023-02-02T04:01:07.594Z,56.27
2023-02-02T04:06:18.843Z,55.89
2023-02-02T04:11:23.202Z,56.21
2023-02-02T04:16:32.873Z,55.56
2023-02-02T04:21:34.465Z,55.73
2023-02-02T04:26:36.898Z,56.36
2023-02-02T04:31:43.801Z,56.11
2023-02-02T04:36:49.827Z,56.19
2023-02-02T04:42:13.725Z,56.16
2023-02-02T04:47:20.265Z,55.94
2023-02-02T04:52:26.582Z,55.80
2023-02-02T04:57:28.208Z,55.98
2023-02-02T05:02:35.055Z,55.63
2023-02-02T05:07:40.293Z,56.11
2023-02-02T05:12:44.150Z,55.44
2023-02-02T05:17:52.964Z,55.80
2023-02-02T05:22:56.508Z,55.68
2023-02-02T05:27:58.541Z,55.35
2023-02-02T05:33:05.836Z,55.61
2023-02-02T05:38:11.563Z,55.67
2023-02-02T05:43:13.116Z,55.47
2023-02-02T05:48:21.807Z,55.39
2023-02-02T05:53:27.628Z,55.55
2023-02-02T05:58:31.615Z,55.89
2023-02-02T06:03:39.518Z,55.54
2023-02-02T06:08:42.283Z,55.34
2023-02-02T06:13:46.451Z,55.61
2023-02-02T06:18:51.842Z,55.83
2023-02-02T06:23:55.675Z,55.93
2023-02-02T06:29:08.771Z,55.56
2023-02-02T06:34:14.828Z,55.40
2023-02-02T06:39:21.838Z,55.42
2023-02-02T06:44:30.929Z,55.59
2023-02-02T06:49:39.427Z,55.17
2023-02-02T06:54:40.995Z,55.42
2023-02-02T06:59:44.857Z,55.72
2023-02-02T07:04:52.888Z,55.60
2023-02-02T07:09:58.373Z,55.58
2023-02-02T07:15:02.551Z,55.65
2023-02-02T07:20:12.070Z,55.69
2023-02-02T07:25:19.236Z,55.29
2023-02-02T07:30:21.877Z,55.38
2023-02-02T07:35:26.771Z,56.00
2023-02-02T07:40:35.535Z,55.80
2023-02-02T07:45:39.744Z,55.66
2023-02-02T07:50:41.455Z,55.42
2023-02-02T07:55:47.502Z,55.71
2023-02-02T08:00:51.179Z,55.76
2023-02-02T08:05:52.779Z,56.16
2023-02-02T08:10:56.842Z,55.78
2023-02-02T08:16:00.098Z,55.82
2023-02-02T08:21:13.532Z,56.41
2023-02-02T08:26:27.788Z,56.05
2023-02-02T08:31:45.372Z,55.77
2023-02-02T08:36:55.913Z,56.14
2023-02-02T08:42:00.015Z,56.27
2023-02-02T08:47:09.550Z,55.57
2023-02-02T08:52:13.489Z,56.04
2023-02-02T08:57:18.528Z,55.61
2023-02-02T09:02:22.164Z,55.96
2023-02-02T09:07:26.867Z,55.24
2023-02-02T09:12:33.183Z,55.60
2023-02-02T09:17:44.191Z,55.74
2023-02-02T09:22:50.670Z,56.01
2023-02-02T09:27:54.524Z,55.21
2023-02-02T09:33:01.594Z,55.62
2023-02-02T09:38:10.399Z,55.60
2023-02-02T09:43:41.283Z,55.35
2023-02-02T09:48:54.951Z,55.62
2023-02-02T09:54:10.232Z,55.66
2023-02-02T09:59:22.358Z,56.17
2023-02-02T10:04:51.857Z,55.48
2023-02-02T10:10:17.991Z,55.67
2023-02-02T10:15:37.702Z,55.00
2023-02-02T10:20:46.079Z,55.28
2023-02-02T10:25:58.004Z,54.79
2023-02-02T10:31:03.623Z,55.44
2023-02-02T10:36:29.858Z,55.33
2023-02-02T10:41:45.241Z,55.14
2023-02-02T10:46:54.300Z,55.17
2023-02-02T10:52:14.049Z,55.30
2023-02-02T10:57:22.539Z,55.14
2023-02-02T11:02:24.182Z,55.13
2023-02-02T11:07:26.139Z,54.93
2023-02-02T11:12:36.780Z,54.74
2023-02-02T11:17:42.918Z,54.83
2023-02-02T11:22:51.765Z,54.94
2023-02-02T11:27:56.740Z,55.27
2023-02-02T11:33:19.592Z,54.55
2023-02-02T11:38:24.397Z,54.96
2023-02-02T11:43:35.248Z,54.51
2023-02-02T11:48:41.044Z,54.27
2023-02-02T11:54:00.253Z,54.48
2023-02-02T11:59:03.938Z,54.93
2023-02-02T12:04:15.875Z,54.80
2023-02-02T12:09:25.810Z,55.20
2023-02-02T12:14:37.335Z,54.77
2023-02-02T12:20:05.662Z,54.74
2023-02-02T12:25:51.856Z,55.17
2023-02-02T12:31:42.932Z,56.16
2023-02-02T12:37:03.385Z,56.75
2023-02-02T12:42:32.907Z,56.93
2023-02-02T12:47:58.029Z,57.55
2023-02-02T12:53:35.538Z,58.22
2023-02-02T12:59:10.705Z,58.11
2023-02-02T13:04:16.800Z,57.84
2023-02-02T13:09:36.493Z,58.13
2023-02-02T13:14:51.592Z,58.38
2023-02-02T13:20:03.426Z,58.70
2023-02-02T13:25:11.156Z,59.32
2023-02-02T13:30:38.221Z,59.35
2023-02-02T13:36:01.814Z,58.91
2023-02-02T13:41:12.474Z,59.71
2023-02-02T13:46:31.453Z,59.61
2023-02-02T13:52:02.562Z,58.96
2023-02-02T13:57:43.277Z,59.29
2023-02-02T14:02:57.870Z,59.57
2023-02-02T14:08:25.404Z,58.79
2023-02-02T14:13:55.667Z,59.16
2023-02-02T14:19:03.511Z,59.02
2023-02-02T14:24:37.372Z,59.02
2023-02-02T14:29:47.282Z,58.78
2023-02-02T14:34:50.468Z,58.08
2023-02-02T14:40:07.428Z,57.16
2023-02-02T14:45:12.119Z,56.63
2023-02-02T14:50:36.233Z,56.79
2023-02-02T14:56:05.035Z,56.64
2023-02-02T15:01:24.349Z,56.05
2023-02-02T15:06:38.756Z,56.47
2023-02-02T15:12:03.952Z,56.10
2023-02-02T15:17:32.055Z,55.65
2023-02-02T15:22:42.857Z,56.05
2023-02-02T15:28:04.764Z,55.94
2023-02-02T15:33:23.778Z,56.19
2023-02-02T15:38:35.558Z,56.28
2023-02-02T15:43:43.552Z,56.77
2023-02-02T15:48:45.088Z,57.02
2023-02-02T15:53:49.379Z,56.57
2023-02-02T15:58:58.470Z,57.26
2023-02-02T16:04:19.494Z,57.38
2023-02-02T16:09:28.311Z,57.35
2023-02-02T16:14:30.301Z,57.83
2023-02-02T16:19:34.951Z,58.03
2023-02-02T16:24:51.995Z,57.75
2023-02-02T16:29:59.737Z,57.95
2023-02-02T16:35:05.161Z,57.61
2023-02-02T16:40:28.109Z,57.87
2023-02-02T16:45:48.525Z,57.63
2023-02-02T16:51:17.709Z,57.71
2023-02-02T16:56:28.887Z,57.41
2023-02-02T17:01:37.402Z,57.66
2023-02-02T17:06:52.349Z,57.21
2023-02-02T17:12:03.398Z,57.27
2023-02-02T17:17:13.451Z,57.45
2023-02-02T17:22:18.581Z,57.65
2023-02-02T17:27:41.541Z,57.35
2023-02-02T17:32:49.212Z,57.26
2023-02-02T17:37:54.722Z,56.88
2023-02-02T17:43:06.510Z,57.48
2023-02-02T17:48:17.037Z,56.54
2023-02-02T17:53:26.362Z,57.47
2023-02-02T17:58:32.576Z,57.01
2023-02-02T18:03:40.638Z,56.14
2023-02-02T18:08:42.264Z,56.66
2023-02-02T18:13:49.825Z,56.92
2023-02-02T18:18:54.158Z,56.53
2023-02-02T18:24:01.354Z,56.67
2023-02-02T18:29:05.496Z,56.31
2023-02-02T18:34:11.449Z,55.99
2023-02-02T18:39:21.829Z,56.33
2023-02-02T18:44:25.800Z,56.27
2023-02-02T18:49:37.578Z,56.14
2023-02-02T18:54:41.675Z,55.96
2023-02-02T18:59:46.033Z,55.89
2023-02-02T19:05:06.350Z,56.36
2023-02-02T19:10:10.726Z,56.55
2023-02-02T19:15:18.261Z,56.24
2023-02-02T19:20:32.238Z,55.94
2023-02-02T19:25:36.570Z,56.01
2023-02-02T19:30:45.829Z,56.09
2023-02-02T19:35:56.117Z,56.49
2023-02-02T19:41:10.153Z,56.75
2023-02-02T19:46:22.603Z,56.42
2023-02-02T19:51:33.658Z,56.01
2023-02-02T19:56:41.113Z,56.25
2023-02-02T20:01:50.579Z,56.19
2023-02-02T20:07:04.734Z,56.02
2023-02-02T20:12:24.330Z,56.53
2023-02-02T20:17:34.376Z,56.13
2023-02-02T20:22:39.347Z,56.19
2023-02-02T20:27:40.859Z,55.75
2023-02-02T20:32:42.502Z,55.95
2023-02-02T20:37:59.993Z,56.07
2023-02-02T20:43:01.601Z,55.79
2023-02-02T20:48:08.008Z,56.24
2023-02-02T20:53:17.716Z,56.31
2023-02-02T20:58:26.045Z,55.89
2023-02-02T21:03:37.767Z,56.19
2023-02-02T21:08:39.423Z,56.58
2023-02-02T21:13:46.781Z,56.28
2023-02-02T21:18:50.826Z,55.69
2023-02-02T21:23:58.862Z,56.03
2023-02-02T21:29:04.764Z,56.43
2023-02-02T21:34:11.311Z,56.18
2023-02-02T21:39:35.779Z,55.92
2023-02-02T21:44:44.055Z,56.55
2023-02-02T21:49:54.385Z,56.04
2023-02-02T21:54:56.532Z,55.99
2023-02-02T22:00:16.550Z,56.26
2023-02-02T22:05:20.128Z,56.56
2023-02-02T22:10:36.589Z,56.49
2023-02-02T22:15:39.076Z,56.81
2023-02-02T22:20:47.366Z,56.47
2023-02-02T22:25:58.274Z,57.41
2023-02-02T22:31:00.932Z,56.91
2023-02-02T22:36:08.315Z,57.37
2023-02-02T22:41:15.151Z,57.41
2023-02-02T22:46:20.866Z,57.46
2023-02-02T22:51:22.438Z,58.10
2023-02-02T22:56:23.942Z,58.63
2023-02-02T23:01:38.024Z,58.66
2023-02-02T23:06:51.520Z,58.88
2023-02-02T23:12:15.084Z,58.65
2023-02-02T23:17:20.065Z,59.42
2023-02-02T23:22:21.717Z,59.33
2023-02-02T23:27:29.073Z,59.14
2023-02-02T23:32:34.079Z,59.37
2023-02-02T23:37:43.176Z,59.73
2023-02-02T23:43:02.767Z,59.54
2023-02-02T23:48:17.135Z,59.75
2023-02-02T23:53:19.797Z,60.08
2023-02-02T23:58:30.195Z,59.62
